Time;durP1;ratioP1;P1;durP2;ratioP2;P2;SDS_P1;SDS_P2;PMS_P1;PMS_P2;Temp;Humidity;BMP_temperature;BMP_pressure;BME280_temperature;BME280_humidity;BME280_pressure;Samples;Min_cycle;Max_cycle;Signal;HPM_P1;HPM_P2
2023/04/13 00:01:01;;;;;;;30.38;17.02;;;;;;;11.36;32.98;99603.19;4993691;28;20030;-65
2023/04/13 00:03:31;;;;;;;26.38;16.55;;;;;;;11.17;33.51;99610.16;5004225;28;20030;-56
2023/04/13 00:05:57;;;;;;;28.88;17.70;;;;;;;11.06;33.43;99581.63;5012601;28;20062;-57
2023/04/13 00:08:23;;;;;;;29.40;17.05;;;;;;;11.26;33.19;99613.88;5012888;28;20479;-59
2023/04/13 00:10:49;;;;;;;26.75;17.20;;;;;;;11.38;33.01;99611.13;5012029;28;20034;-58
2023/04/13 00:13:15;;;;;;;28.00;16.90;;;;;;;11.34;32.97;99616.75;5011510;28;20053;-58
2023/04/13 00:15:42;;;;;;;26.13;17.25;;;;;;;11.27;33.04;99617.41;5010519;28;20298;-57
2023/04/13 00:18:09;;;;;;;30.27;17.77;;;;;;;11.26;33.28;99619.22;5012923;28;20030;-58
2023/04/13 00:20:35;;;;;;;29.23;17.65;;;;;;;11.14;33.65;99615.78;5008759;28;20445;-57
2023/04/13 00:23:00;;;;;;;29.40;18.48;;;;;;;11.01;33.68;99616.00;4992061;28;20034;-57
2023/04/13 00:25:26;;;;;;;29.58;18.10;;;;;;;10.94;34.00;99624.69;4991723;28;20053;-56
2023/04/13 00:27:51;;;;;;;31.30;17.02;;;;;;;10.85;34.00;99619.13;4993215;28;20038;-57
2023/04/13 00:30:18;;;;;;;29.27;17.83;;;;;;;10.97;33.98;99627.97;4993090;28;20042;-57
2023/04/13 00:32:45;;;;;;;29.52;18.33;;;;;;;10.87;34.44;99630.56;4992524;28;20039;-57
2023/04/13 00:35:14;;;;;;;25.60;17.35;;;;;;;10.71;34.42;99625.66;4992699;28;20041;-56
2023/04/13 00:37:41;;;;;;;28.35;17.58;;;;;;;10.62;34.52;99629.13;4992976;28;20030;-58
2023/04/13 00:40:08;;;;;;;31.77;17.88;;;;;;;10.66;34.47;99635.94;5008491;28;20395;-59
2023/04/13 00:42:34;;;;;;;28.40;18.30;;;;;;;10.68;34.84;99639.31;5012564;28;20030;-55
2023/04/13 00:44:59;;;;;;;25.15;17.85;;;;;;;10.55;34.56;99617.22;5012668;28;20022;-56
2023/04/13 00:47:31;;;;;;;32.03;18.02;;;;;;;10.75;34.40;99623.59;5012309;28;20408;-57
2023/04/13 00:50:00;;;;;;;27.60;17.63;;;;;;;10.68;34.71;99628.63;5012205;28;20037;-56
2023/04/13 00:52:26;;;;;;;28.35;17.88;;;;;;;10.56;34.97;99632.31;5012136;28;20614;-59
2023/04/13 00:54:55;;;;;;;35.85;18.20;;;;;;;10.39;34.95;99598.91;5010830;28;20073;-58
2023/04/13 00:57:21;;;;;;;26.48;17.50;;;;;;;10.59;34.83;99630.22;5010847;28;20119;-59
2023/04/13 00:59:48;;;;;;;34.45;17.80;;;;;;;10.54;34.91;99615.53;5011385;28;20120;-54
2023/04/13 01:02:15;;;;;;;29.17;17.63;;;;;;;10.52;35.15;99638.91;5011187;28;20030;-54
2023/04/13 01:04:41;;;;;;;27.90;17.88;;;;;;;10.23;35.04;99599.34;5010754;28;20025;-54
2023/04/13 01:07:36;;;;;;;25.38;17.55;;;;;;;10.60;34.65;99636.41;5012003;28;20445;-57
2023/04/13 01:10:05;;;;;;;31.60;18.13;;;;;;;10.48;34.99;99631.13;5012564;28;20037;-56
2023/04/13 01:12:52;;;;;;;26.70;18.17;;;;;;;10.46;35.10;99637.56;5011921;28;20465;-57
2023/04/13 01:15:19;;;;;;;25.95;17.27;;;;;;;10.44;35.34;99645.75;5003993;28;20030;-59
2023/04/13 01:17:56;;;;;;;29.00;18.38;;;;;;;10.39;35.30;99637.22;4992542;28;20113;-57
2023/04/13 01:20:26;;;;;;;30.17;18.02;;;;;;;10.29;35.60;99636.28;4992156;28;20092;-52
2023/04/13 01:23:01;;;;;;;23.83;17.88;;;;;;;10.27;35.77;99632.88;4992287;28;20034;-52
2023/04/13 01:25:33;;;;;;;26.58;17.77;;;;;;;10.14;36.00;99644.59;4992659;28;20129;-51
2023/04/13 01:27:58;;;;;;;29.65;17.33;;;;;;;10.06;36.03;99636.34;4996257;28;20046;-54
2023/04/13 01:30:27;;;;;;;30.30;17.02;;;;;;;9.96;36.43;99632.72;5009377;28;20045;-58
2023/04/13 01:32:53;;;;;;;27.48;17.90;;;;;;;9.85;37.05;99641.63;5010102;28;20337;-57
2023/04/13 01:35:21;;;;;;;28.45;17.70;;;;;;;9.76;37.29;99637.84;5015290;28;20038;-58
2023/04/13 01:37:49;;;;;;;28.92;17.63;;;;;;;9.71;36.87;99608.81;5015243;28;20361;-56
2023/04/13 01:40:15;;;;;;;26.70;17.20;;;;;;;9.75;37.07;99626.28;5030730;28;20418;-57
2023/04/13 01:42:42;;;;;;;25.95;17.85;;;;;;;9.83;37.23;99636.38;5014965;28;20060;-59
2023/04/13 01:45:28;;;;;;;29.85;16.98;;;;;;;10.02;36.33;99633.09;5015648;28;20029;-57
2023/04/13 01:48:05;;;;;;;26.88;17.27;;;;;;;9.93;37.04;99630.31;5009398;28;20027;-56
2023/04/13 01:50:40;;;;;;;28.27;17.15;;;;;;;9.86;36.96;99632.63;4994116;28;20383;-60
2023/04/13 01:53:10;;;;;;;25.73;16.00;;;;;;;9.77;36.66;99620.84;4995506;28;20054;-56
2023/04/13 01:55:40;;;;;;;27.15;17.20;;;;;;;9.76;36.90;99635.19;4995954;28;20116;-56
2023/04/13 01:58:09;;;;;;;27.45;16.30;;;;;;;9.55;37.96;99627.91;4995928;28;20172;-59
2023/04/13 02:00:35;;;;;;;23.95;16.27;;;;;;;9.50;37.80;99635.44;4995176;28;20026;-55
2023/04/13 02:03:07;;;;;;;28.88;16.58;;;;;;;9.55;37.67;99627.06;4995491;28;20030;-55
2023/04/13 02:05:36;;;;;;;28.27;16.92;;;;;;;9.25;37.55;99604.47;4995527;28;20103;-56
2023/04/13 02:08:04;;;;;;;28.02;17.63;;;;;;;9.43;38.07;99636.91;4994853;28;20041;-55
2023/04/13 02:10:31;;;;;;;24.10;16.25;;;;;;;9.41;37.86;99644.19;4995207;28;20066;-57
2023/04/13 02:12:57;;;;;;;30.75;17.42;;;;;;;9.47;37.53;99636.53;4996128;28;20173;-59
2023/04/13 02:15:23;;;;;;;26.95;16.02;;;;;;;9.42;37.75;99637.88;5001966;28;20046;-58
2023/04/13 02:17:49;;;;;;;24.58;16.48;;;;;;;9.46;37.96;99642.00;5002998;28;20026;-58
2023/04/13 02:20:15;;;;;;;31.70;16.67;;;;;;;9.41;37.86;99638.84;4994899;28;20369;-58
2023/04/13 02:22:42;;;;;;;26.30;17.30;;;;;;;9.45;37.84;99626.94;4995106;28;20041;-69
2023/04/13 02:25:10;;;;;;;25.77;16.40;;;;;;;9.42;37.71;99617.34;4995519;28;20050;-58
2023/04/13 02:27:37;;;;;;;26.58;15.70;;;;;;;9.68;37.49;99643.81;4995056;28;20042;-56
2023/04/13 02:30:05;;;;;;;28.90;16.75;;;;;;;9.53;37.88;99640.53;4994596;28;20070;-55
2023/04/13 02:32:31;;;;;;;30.92;17.42;;;;;;;9.52;37.67;99630.81;4994868;28;20052;-60
2023/04/13 02:35:00;;;;;;;25.88;16.58;;;;;;;9.34;37.66;99606.41;5014235;28;20034;-57
2023/04/13 02:37:28;;;;;;;30.52;17.83;;;;;;;9.24;38.46;99614.31;5012008;28;20353;-56
2023/04/13 02:39:54;;;;;;;33.85;17.88;;;;;;;9.37;38.82;99648.94;4994442;28;20488;-57
2023/04/13 02:42:20;;;;;;;32.50;17.10;;;;;;;9.43;38.40;99644.94;4994835;28;20066;-54
2023/04/13 02:44:46;;;;;;;28.23;18.13;;;;;;;9.39;38.72;99641.63;4993031;28;20030;-57
2023/04/13 02:47:11;;;;;;;29.50;18.23;;;;;;;9.39;38.89;99638.09;4993845;28;20026;-67
2023/04/13 02:49:37;;;;;;;30.13;18.33;;;;;;;9.39;39.06;99644.31;4993649;28;20030;-56
2023/04/13 02:52:02;;;;;;;30.50;17.77;;;;;;;9.39;38.93;99635.44;5005873;28;20060;-57
2023/04/13 02:54:28;;;;;;;35.35;18.48;;;;;;;9.26;39.10;99607.03;5014018;28;20041;-55
2023/04/13 02:56:55;;;;;;;29.70;17.50;;;;;;;9.48;38.88;99643.56;5013747;28;20042;-56
2023/04/13 02:59:21;;;;;;;26.92;18.13;;;;;;;9.54;38.82;99641.41;5010086;28;20029;-58
2023/04/13 03:01:47;;;;;;;26.83;17.48;;;;;;;9.61;38.59;99638.09;4994125;28;20454;-54
2023/04/13 03:04:13;;;;;;;24.65;17.05;;;;;;;9.69;38.24;99642.84;4996373;28;20380;-67
2023/04/13 03:06:41;;;;;;;27.10;17.48;;;;;;;9.73;38.48;99636.28;5013020;28;20030;-58
2023/04/13 03:09:07;;;;;;;28.42;17.63;;;;;;;9.83;38.44;99644.41;5010219;28;20101;-57
2023/04/13 03:11:32;;;;;;;27.85;17.27;;;;;;;9.99;38.03;99643.19;4994034;28;20141;-58
2023/04/13 03:13:59;;;;;;;27.15;17.60;;;;;;;10.10;38.00;99645.81;4993633;28;20445;-55
2023/04/13 03:16:25;;;;;;;27.45;17.27;;;;;;;10.20;36.73;99628.03;4992934;28;20093;-56
2023/04/13 03:18:51;;;;;;;28.55;17.15;;;;;;;10.38;36.64;99645.38;5005014;28;20022;-58
2023/04/13 03:21:16;;;;;;;28.10;17.00;;;;;;;10.46;36.74;99653.63;4992648;28;20034;-55
2023/04/13 03:23:42;;;;;;;27.23;17.52;;;;;;;10.59;36.41;99664.16;5006345;28;20096;-63
2023/04/13 03:26:08;;;;;;;28.75;16.98;;;;;;;10.56;35.60;99633.16;5012943;28;20354;-58
2023/04/13 03:28:34;;;;;;;25.48;16.40;;;;;;;10.92;35.72;99648.94;4992674;28;20145;-58
2023/04/13 03:31:00;;;;;;;21.63;16.25;;;;;;;11.11;35.55;99648.22;4993446;28;20033;-54
2023/04/13 03:33:25;;;;;;;28.98;17.63;;;;;;;11.38;34.83;99643.28;4993790;28;20030;-55
2023/04/13 03:35:51;;;;;;;27.42;17.15;;;;;;;11.70;34.40;99647.63;4992238;28;20033;-64
2023/04/13 03:38:16;;;;;;;27.17;16.45;;;;;;;11.66;34.52;99622.09;4993283;28;20171;-58
2023/04/13 03:40:41;;;;;;;23.63;15.75;;;;;;;11.99;33.44;99650.41;4993964;28;20031;-56
2023/04/13 03:43:07;;;;;;;31.90;16.95;;;;;;;12.03;33.55;99638.44;4993479;28;20124;-57
2023/04/13 03:45:32;;;;;;;27.73;16.02;;;;;;;12.11;33.62;99651.19;5003962;28;20065;-59
2023/04/13 03:47:58;;;;;;;25.80;16.73;;;;;;;12.36;33.37;99657.00;5011923;28;20030;-59
2023/04/13 03:50:23;;;;;;;24.13;16.30;;;;;;;12.71;32.44;99650.22;5013525;28;20112;-56
2023/04/13 03:52:49;;;;;;;23.13;16.67;;;;;;;12.94;31.89;99657.16;4976541;28;20461;-59
2023/04/13 03:55:14;;;;;;;25.02;16.00;;;;;;;13.09;31.26;99647.63;4992598;28;20382;-56
2023/04/13 03:57:41;;;;;;;21.98;15.52;;;;;;;13.15;31.18;99655.16;4993340;28;20050;-59
2023/04/13 04:00:12;;;;;;;23.23;16.02;;;;;;;13.00;31.40;99648.50;4993357;28;20081;-58
2023/04/13 04:02:38;;;;;;;21.02;15.45;;;;;;;12.82;31.58;99656.47;4992591;28;20026;-58
2023/04/13 04:05:04;;;;;;;27.13;16.27;;;;;;;12.80;31.59;99647.69;4992652;28;20398;-59
2023/04/13 04:07:30;;;;;;;26.60;16.60;;;;;;;12.73;31.50;99660.84;4993100;28;20434;-63
2023/04/13 04:09:55;;;;;;;24.15;16.08;;;;;;;12.40;31.89;99623.53;4993374;28;20109;-57
2023/04/13 04:12:21;;;;;;;26.13;16.48;;;;;;;12.53;32.16;99654.59;4993195;28;20049;-59
2023/04/13 04:14:46;;;;;;;24.17;15.07;;;;;;;12.35;32.03;99626.63;4992824;28;20452;-66
2023/04/13 04:17:12;;;;;;;24.27;16.00;;;;;;;12.62;31.96;99657.28;4993512;28;20030;-56
2023/04/13 04:19:37;;;;;;;27.10;15.88;;;;;;;12.70;31.78;99659.28;4993147;28;20038;-56
2023/04/13 04:22:03;;;;;;;24.20;15.88;;;;;;;12.70;31.97;99651.22;5006527;28;20041;-57
2023/04/13 04:24:29;;;;;;;24.58;15.50;;;;;;;12.87;31.17;99640.75;5012560;28;20088;-60
2023/04/13 04:26:56;;;;;;;26.52;16.55;;;;;;;12.87;31.29;99655.03;4995537;28;20401;-57
2023/04/13 04:29:32;;;;;;;22.77;15.73;;;;;;;13.06;31.25;99656.00;5012683;28;20092;-57
2023/04/13 04:32:02;;;;;;;21.80;15.65;;;;;;;13.23;30.96;99662.47;5012476;28;20173;-55
2023/04/13 04:34:28;;;;;;;26.95;16.25;;;;;;;13.46;30.76;99660.31;5012007;28;20033;-59
2023/04/13 04:36:54;;;;;;;23.60;16.02;;;;;;;13.68;30.24;99666.31;4999801;28;20026;-54
2023/04/13 04:39:21;;;;;;;22.40;16.25;;;;;;;13.88;29.83;99660.84;4992993;28;20030;-54
2023/04/13 04:41:54;;;;;;;21.48;16.35;;;;;;;14.11;29.70;99666.66;4992222;28;20045;-61
2023/04/13 04:44:29;;;;;;;22.48;15.52;;;;;;;14.33;29.46;99669.94;4992735;28;20077;-62
2023/04/13 04:46:58;;;;;;;25.83;16.00;;;;;;;14.76;28.81;99662.97;4992821;28;20046;-62
2023/04/13 04:49:26;;;;;;;22.67;16.50;;;;;;;15.14;27.99;99656.50;4992993;28;20417;-56
2023/04/13 04:51:56;;;;;;;29.25;17.15;;;;;;;16.04;26.97;99660.72;4992671;28;20061;-71
2023/04/13 04:54:23;;;;;;;24.58;15.95;;;;;;;16.76;25.93;99667.47;5007735;28;20425;-60
2023/04/13 04:56:52;;;;;;;29.00;15.80;;;;;;;17.31;25.34;99668.63;4995710;28;20047;-70
2023/04/13 04:59:18;;;;;;;27.42;15.90;;;;;;;17.34;25.02;99662.88;4993036;28;20030;-58
2023/04/13 05:01:44;;;;;;;27.52;16.63;;;;;;;16.87;25.05;99639.22;4992392;28;20038;-61
2023/04/13 05:04:10;;;;;;;25.38;15.70;;;;;;;16.49;25.67;99637.00;5009028;28;20042;-61
2023/04/13 05:06:39;;;;;;;26.33;15.68;;;;;;;16.37;26.03;99668.91;5012076;28;20461;-60
2023/04/13 05:09:05;;;;;;;23.70;16.35;;;;;;;16.34;26.01;99669.25;5013810;28;20100;-61
2023/04/13 05:11:31;;;;;;;30.63;17.02;;;;;;;16.82;25.70;99666.78;5015300;28;20433;-60
2023/04/13 05:13:57;;;;;;;26.75;16.17;;;;;;;17.63;24.45;99660.59;5006975;28;20042;-60
2023/04/13 05:16:23;;;;;;;25.60;15.30;;;;;;;17.61;24.08;99660.78;4995956;28;20031;-59
2023/04/13 05:18:49;;;;;;;32.05;15.98;;;;;;;17.14;24.87;99659.69;4996322;28;20061;-60
2023/04/13 05:21:16;;;;;;;24.52;15.57;;;;;;;17.04;25.30;99659.88;5005194;28;20508;-61
2023/04/13 05:23:42;;;;;;;24.40;15.82;;;;;;;17.13;25.10;99630.13;5015285;28;20092;-60
2023/04/13 05:26:10;;;;;;;26.35;16.10;;;;;;;17.59;24.85;99646.56;5015573;28;20037;-60
2023/04/13 05:28:37;;;;;;;24.30;15.55;;;;;;;17.96;24.43;99655.03;5015665;28;20041;-60
2023/04/13 05:31:03;;;;;;;26.00;16.02;;;;;;;18.36;23.79;99658.59;5015470;28;20096;-60
2023/04/13 05:33:29;;;;;;;26.00;16.58;;;;;;;18.77;23.06;99649.31;5015201;28;20503;-60
2023/04/13 05:35:55;;;;;;;27.88;15.57;;;;;;;18.95;22.71;99650.88;5015141;28;20033;-61
2023/04/13 05:38:21;;;;;;;25.00;15.35;;;;;;;19.10;22.56;99641.97;5014105;28;20046;-70
2023/04/13 05:40:47;;;;;;;24.48;15.55;;;;;;;19.44;22.06;99637.88;4994948;28;20037;-61
2023/04/13 05:43:13;;;;;;;20.17;14.15;;;;;;;19.40;22.18;99620.28;4995494;28;20489;-59
2023/04/13 05:45:39;;;;;;;21.23;14.65;;;;;;;19.63;21.44;99645.47;5005034;28;20041;-61
2023/04/13 05:48:05;;;;;;;23.95;15.02;;;;;;;18.97;22.40;99654.25;5015442;28;20108;-61
2023/04/13 05:50:30;;;;;;;18.10;12.65;;;;;;;18.73;22.46;99645.28;5014968;28;20030;-62
2023/04/13 05:52:56;;;;;;;23.42;14.18;;;;;;;18.04;23.51;99644.22;5014425;28;20117;-61
2023/04/13 05:55:23;;;;;;;24.17;14.57;;;;;;;17.97;23.69;99642.38;5015098;28;20045;-70
2023/04/13 05:57:50;;;;;;;30.08;15.48;;;;;;;17.97;23.87;99653.19;5003022;28;20026;-60
2023/04/13 06:00:17;;;;;;;29.42;14.68;;;;;;;18.06;23.57;99650.31;4995267;28;20042;-59
2023/04/13 06:02:46;;;;;;;22.58;14.93;;;;;;;18.41;23.75;99641.81;4995437;28;20105;-61
2023/04/13 06:05:15;;;;;;;25.52;15.10;;;;;;;19.23;22.61;99639.44;4998825;28;20040;-59
2023/04/13 06:07:43;;;;;;;22.95;14.85;;;;;;;20.32;20.84;99629.81;5013006;28;20026;-62
2023/04/13 06:10:10;;;;;;;28.80;15.07;;;;;;;21.21;20.34;99627.72;5013386;28;20057;-60
2023/04/13 06:12:37;;;;;;;25.92;14.65;;;;;;;21.55;19.61;99630.66;5014581;28;20029;-60
2023/04/13 06:15:03;;;;;;;26.50;15.23;;;;;;;22.31;19.10;99636.22;5010678;28;20057;-60
2023/04/13 06:17:29;;;;;;;25.70;13.82;;;;;;;23.39;17.75;99637.16;4995168;28;20129;-62
2023/04/13 06:19:54;;;;;;;23.92;14.23;;;;;;;23.87;16.92;99611.38;4993531;28;20431;-63
2023/04/13 06:22:20;;;;;;;21.90;13.65;;;;;;;24.20;16.55;99632.28;4995362;28;20511;-60
2023/04/13 06:24:47;;;;;;;22.38;13.88;;;;;;;23.32;17.19;99628.97;4994514;28;20027;-57
2023/04/13 06:27:12;;;;;;;17.75;12.65;;;;;;;23.67;17.17;99625.09;4995040;28;20076;-60
2023/04/13 06:29:39;;;;;;;22.15;12.68;;;;;;;24.45;16.31;99620.56;4996923;28;20066;-61
2023/04/13 06:32:05;;;;;;;19.02;12.50;;;;;;;24.52;16.11;99626.00;5014507;28;20034;-61
2023/04/13 06:34:30;;;;;;;27.75;13.73;;;;;;;24.93;15.95;99618.34;4999363;28;20071;-58
2023/04/13 06:36:56;;;;;;;18.73;12.63;;;;;;;25.28;15.36;99636.97;4994775;28;20033;-58
2023/04/13 06:39:22;;;;;;;22.75;12.43;;;;;;;25.29;15.40;99630.44;4994866;28;20026;-60
2023/04/13 06:41:47;;;;;;;18.10;12.13;;;;;;;25.50;14.94;99631.94;4993503;28;20030;-58
2023/04/13 06:44:13;;;;;;;17.00;12.48;;;;;;;25.40;15.03;99630.75;4995017;28;20030;-57
2023/04/13 06:46:38;;;;;;;19.88;11.70;;;;;;;25.04;15.72;99635.94;4994218;28;20193;-59
2023/04/13 06:49:04;;;;;;;21.35;13.48;;;;;;;24.42;15.55;99645.63;5005984;28;20061;-59
2023/04/13 06:51:30;;;;;;;19.50;13.35;;;;;;;23.62;16.39;99644.88;5006922;28;20167;-69
2023/04/13 06:53:55;;;;;;;20.75;13.07;;;;;;;22.85;17.15;99637.19;5010556;28;20460;-67
2023/04/13 06:56:21;;;;;;;24.60;13.68;;;;;;;22.77;17.50;99642.81;5013838;28;20044;-60
2023/04/13 06:58:46;;;;;;;21.77;13.52;;;;;;;23.34;16.84;99640.53;5013402;28;20417;-59
2023/04/13 07:01:12;;;;;;;19.23;12.85;;;;;;;24.40;15.88;99642.28;5013623;28;20484;-61
2023/04/13 07:03:37;;;;;;;16.70;12.20;;;;;;;25.36;15.13;99627.63;5013662;28;20034;-60
2023/04/13 07:06:07;;;;;;;18.10;12.50;;;;;;;25.02;15.30;99638.06;5009500;28;20088;-61
2023/04/13 07:08:33;;;;;;;20.30;12.85;;;;;;;24.67;15.42;99631.16;5001105;28;20033;-62
2023/04/13 07:10:59;;;;;;;14.68;12.23;;;;;;;24.32;15.85;99637.06;5001925;28;20030;-59
2023/04/13 07:13:25;;;;;;;15.80;13.27;;;;;;;23.73;16.46;99642.56;5013564;28;20334;-61
2023/04/13 07:15:51;;;;;;;20.20;13.02;;;;;;;23.45;17.01;99640.94;5013689;28;20456;-61
2023/04/13 07:18:16;;;;;;;17.45;12.25;;;;;;;23.45;17.03;99641.78;5008794;28;20061;-67
2023/04/13 07:20:42;;;;;;;17.13;13.00;;;;;;;23.68;16.69;99632.25;4992796;28;20058;-61
2023/04/13 07:23:08;;;;;;;25.00;13.20;;;;;;;24.33;16.08;99641.47;5011480;28;20470;-62
2023/04/13 07:25:34;;;;;;;18.88;12.00;;;;;;;24.54;15.71;99637.56;5010258;28;20378;-60
2023/04/13 07:27:59;;;;;;;19.08;12.25;;;;;;;24.33;16.06;99650.53;4996132;28;20449;-58
2023/04/13 07:30:25;;;;;;;18.90;12.85;;;;;;;23.96;16.36;99650.22;4993675;28;20113;-60
2023/04/13 07:32:51;;;;;;;19.77;12.38;;;;;;;23.34;17.12;99651.44;4993613;28;20030;-61
2023/04/13 07:35:17;;;;;;;17.90;11.93;;;;;;;22.77;17.43;99640.09;4993654;28;20102;-61
2023/04/13 07:37:43;;;;;;;17.45;11.80;;;;;;;22.32;18.18;99657.84;5006511;28;20113;-61
2023/04/13 07:40:10;;;;;;;18.13;11.82;;;;;;;21.80;18.56;99643.81;5011889;28;20137;-57
2023/04/13 07:42:36;;;;;;;24.38;11.80;;;;;;;21.60;18.86;99649.94;4994558;28;20423;-66
2023/04/13 07:45:01;;;;;;;17.23;11.90;;;;;;;21.32;19.25;99661.72;4996747;28;20026;-52
2023/04/13 07:47:28;;;;;;;23.88;12.55;;;;;;;21.18;19.67;99657.19;5012326;28;20108;-71
2023/04/13 07:49:53;;;;;;;17.48;11.60;;;;;;;20.81;20.09;99660.03;5013316;28;20434;-54
2023/04/13 07:52:19;;;;;;;18.58;10.63;;;;;;;20.53;20.20;99651.78;5005063;28;20088;-56
2023/04/13 07:54:45;;;;;;;11.10;9.15;;;;;;;20.48;19.86;99639.59;5028478;28;20046;-53
2023/04/13 07:57:10;;;;;;;13.68;9.35;;;;;;;20.00;20.29;99642.84;4996566;28;20037;-54
2023/04/13 07:59:36;;;;;;;19.50;9.52;;;;;;;19.37;21.33;99697.50;4992327;28;20532;-53
2023/04/13 08:02:01;;;;;;;21.50;9.98;;;;;;;19.32;21.60;99654.66;4993368;28;20108;-55
2023/04/13 08:04:26;;;;;;;19.30;10.02;;;;;;;19.11;21.72;99649.91;4992421;28;20034;-52
2023/04/13 08:06:52;;;;;;;15.93;9.73;;;;;;;19.35;21.55;99637.97;4996506;28;20053;-52
2023/04/13 08:09:18;;;;;;;14.43;9.88;;;;;;;19.94;20.74;99641.72;5011842;28;20069;-53
2023/04/13 08:11:43;;;;;;;17.92;8.90;;;;;;;20.40;20.36;99649.78;5011890;28;20457;-57
2023/04/13 08:14:10;;;;;;;15.20;9.70;;;;;;;20.71;20.17;99645.91;5012317;28;20069;-66
2023/04/13 08:16:36;;;;;;;17.05;8.85;;;;;;;21.08;19.75;99633.03;5011818;28;20045;-68
2023/04/13 08:19:02;;;;;;;13.60;8.15;;;;;;;21.45;19.20;99639.19;5005544;28;20033;-64
2023/04/13 08:21:28;;;;;;;14.73;8.27;;;;;;;21.59;18.93;99645.53;5017807;28;20037;-64
2023/04/13 08:23:55;;;;;;;14.00;8.80;;;;;;;21.21;18.79;99610.50;5019328;28;20026;-64
2023/04/13 08:26:20;;;;;;;15.02;9.18;;;;;;;21.37;19.18;99636.63;5027663;28;20034;-65
2023/04/13 08:28:47;;;;;;;12.63;8.45;;;;;;;21.58;18.87;99627.50;4996443;28;20076;-63
2023/04/13 08:31:14;;;;;;;10.85;8.13;;;;;;;21.59;18.54;99601.13;4992061;28;20121;-64
2023/04/13 08:33:40;;;;;;;14.90;8.27;;;;;;;21.68;18.72;99620.88;4992396;28;20476;-64
2023/04/13 08:36:06;;;;;;;11.45;8.13;;;;;;;21.59;18.41;99607.41;4991769;28;20038;-64
2023/04/13 08:38:32;;;;;;;16.90;8.45;;;;;;;21.60;18.75;99598.19;4993698;28;20030;-62
2023/04/13 08:41:00;;;;;;;12.75;8.35;;;;;;;22.21;18.42;99629.28;4993192;28;20046;-63
2023/04/13 08:43:26;;;;;;;12.52;7.22;;;;;;;22.48;17.54;99615.75;4992719;28;20056;-63
2023/04/13 08:45:52;;;;;;;19.33;7.38;;;;;;;22.56;17.79;99628.34;4996489;28;20026;-63
2023/04/13 08:48:18;;;;;;;16.75;8.00;;;;;;;22.45;17.82;99632.50;4995585;28;20038;-64
2023/04/13 08:50:45;;;;;;;14.25;6.60;;;;;;;22.46;17.36;99630.59;5014522;28;20119;-64
2023/04/13 08:53:10;;;;;;;12.82;6.00;;;;;;;22.02;17.41;99627.34;5005161;28;20050;-64
2023/04/13 08:55:46;;;;;;;11.65;5.57;;;;;;;21.76;17.82;99621.56;5008627;28;20096;-63
2023/04/13 08:58:13;;;;;;;11.85;5.43;;;;;;;21.74;17.75;99617.38;5001829;28;20420;-63
2023/04/13 09:00:42;;;;;;;14.25;5.95;;;;;;;21.72;17.07;99589.47;4995069;28;20116;-63
2023/04/13 09:03:11;;;;;;;11.13;5.78;;;;;;;21.88;16.96;99643.63;5009262;28;20034;-63
2023/04/13 09:05:41;;;;;;;14.45;5.28;;;;;;;21.49;17.43;99612.38;5014625;28;20065;-64
2023/04/13 09:08:12;;;;;;;14.32;5.00;;;;;;;21.25;16.98;99609.09;5015214;28;20040;-65
2023/04/13 09:10:37;;;;;;;10.38;4.65;;;;;;;20.88;17.53;99633.75;5015416;28;20460;-63
2023/04/13 09:13:03;;;;;;;6.95;5.00;;;;;;;20.56;18.23;99629.66;5014538;28;20026;-63
2023/04/13 09:15:31;;;;;;;9.82;5.13;;;;;;;20.54;18.32;99620.84;5002694;28;20042;-67
2023/04/13 09:18:06;;;;;;;10.55;4.80;;;;;;;20.57;18.14;99598.69;4996011;28;20061;-66
2023/04/13 09:20:31;;;;;;;12.37;4.60;;;;;;;20.71;17.49;99637.75;4994824;28;20026;-65
2023/04/13 09:22:57;;;;;;;7.45;4.28;;;;;;;20.68;17.51;99643.56;5001572;28;20022;-65
2023/04/13 09:25:24;;;;;;;9.02;4.15;;;;;;;20.31;17.92;99627.31;5005250;28;20437;-65
2023/04/13 09:27:53;;;;;;;10.80;4.13;;;;;;;20.19;18.16;99640.56;4995654;28;20255;-65
2023/04/13 09:30:20;;;;;;;10.00;4.00;;;;;;;19.91;18.60;99606.78;4998231;28;20026;-66
2023/04/13 09:32:46;;;;;;;11.35;4.32;;;;;;;19.94;18.47;99617.25;4995667;28;20414;-64
2023/04/13 09:35:12;;;;;;;6.82;3.90;;;;;;;19.75;18.59;99656.72;4995933;28;20036;-69
2023/04/13 09:37:42;;;;;;;8.30;3.55;;;;;;;19.68;18.51;99660.34;4995715;28;20058;-63
2023/04/13 09:40:12;;;;;;;7.28;3.45;;;;;;;19.56;18.85;99659.97;4995623;28;20389;-63
2023/04/13 09:42:41;;;;;;;9.98;3.72;;;;;;;19.27;18.95;99615.50;4998657;28;20041;-64
2023/04/13 09:45:08;;;;;;;8.45;3.72;;;;;;;19.43;18.71;99619.91;5023808;28;20029;-63
2023/04/13 09:47:39;;;;;;;7.43;3.45;;;;;;;19.58;18.75;99634.34;5024045;28;20065;-66
2023/04/13 09:50:17;;;;;;;6.60;2.53;;;;;;;20.00;18.07;99633.84;5018741;28;20034;-64
2023/04/13 09:52:43;;;;;;;10.88;3.00;;;;;;;19.64;17.63;99627.28;5020614;28;20050;-63
2023/04/13 09:55:15;;;;;;;4.50;3.42;;;;;;;19.48;18.19;99623.75;5023156;28;20443;-63
2023/04/13 09:57:41;;;;;;;12.05;3.60;;;;;;;19.13;18.76;99587.31;5024826;28;20037;-62
2023/04/13 10:00:13;;;;;;;8.35;4.22;;;;;;;19.45;18.44;99624.13;5015807;28;20314;-63
2023/04/13 10:02:40;;;;;;;9.68;3.10;;;;;;;19.55;18.33;99621.13;5017332;28;20038;-62
2023/04/13 10:05:08;;;;;;;12.15;3.60;;;;;;;19.60;18.58;99615.97;5021884;28;20038;-62
2023/04/13 10:07:35;;;;;;;8.07;3.85;;;;;;;19.43;18.46;99584.63;5023227;28;20290;-63
2023/04/13 10:10:02;;;;;;;12.80;3.90;;;;;;;19.70;18.01;99614.84;5020521;28;20033;-65
2023/04/13 10:12:30;;;;;;;6.97;2.95;;;;;;;19.88;17.88;99614.44;5019790;28;20045;-62
2023/04/13 10:15:10;;;;;;;7.43;3.38;;;;;;;19.75;17.39;99623.25;5022820;28;20037;-64
2023/04/13 10:17:49;;;;;;;8.27;3.50;;;;;;;19.74;17.74;99627.00;5020101;28;20040;-64
2023/04/13 10:20:16;;;;;;;8.50;3.20;;;;;;;19.57;17.71;99615.50;5022945;28;20026;-62
2023/04/13 10:22:43;;;;;;;5.85;3.47;;;;;;;19.39;17.86;99580.59;5022062;28;20083;-64
2023/04/13 10:25:17;;;;;;;5.85;3.47;;;;;;;19.62;18.29;99607.63;5018543;28;20030;-63
2023/04/13 10:27:42;;;;;;;8.98;3.75;;;;;;;19.59;18.37;99602.56;5020661;28;20048;-64
2023/04/13 10:30:15;;;;;;;7.35;3.80;;;;;;;19.76;18.72;99600.50;5019073;28;20037;-62
2023/04/13 10:32:41;;;;;;;7.65;3.75;;;;;;;19.83;18.58;99585.13;5020559;28;20025;-65
2023/04/13 10:35:11;;;;;;;7.65;3.47;;;;;;;20.16;17.80;99609.16;5021150;28;20055;-64
2023/04/13 10:37:39;;;;;;;7.95;3.63;;;;;;;20.27;17.20;99617.84;5022562;28;20116;-64
2023/04/13 10:40:12;;;;;;;8.93;4.15;;;;;;;20.20;17.20;99594.13;5021063;28;20109;-64
2023/04/13 10:42:41;;;;;;;9.05;3.88;;;;;;;20.17;17.34;99599.13;5019957;28;20472;-64
2023/04/13 10:45:23;;;;;;;11.70;4.05;;;;;;;20.33;17.42;99598.06;5020762;28;20042;-65
2023/04/13 10:47:49;;;;;;;7.82;4.18;;;;;;;20.37;17.11;99577.59;5018916;28;20460;-63
2023/04/13 10:50:16;;;;;;;7.45;3.78;;;;;;;20.35;17.26;99588.66;5023952;28;20030;-65
2023/04/13 10:52:53;;;;;;;9.52;4.20;;;;;;;20.37;17.56;99612.94;5012442;28;20464;-65
2023/04/13 10:55:22;;;;;;;6.05;3.50;;;;;;;20.40;17.06;99601.66;5010850;28;20036;-64
2023/04/13 10:57:48;;;;;;;4.60;3.42;;;;;;;19.93;17.29;99598.47;5013563;28;20053;-64
2023/04/13 11:00:20;;;;;;;5.97;3.40;;;;;;;19.86;17.48;99598.34;4996543;28;20361;-64
2023/04/13 11:02:50;;;;;;;7.43;3.78;;;;;;;19.82;17.50;99591.59;5013361;28;20030;-64
2023/04/13 11:05:21;;;;;;;5.72;3.55;;;;;;;19.77;17.40;99591.31;5012319;28;20361;-65
2023/04/13 11:07:48;;;;;;;8.13;3.33;;;;;;;19.60;17.51;99583.41;5008379;28;20022;-63
2023/04/13 11:10:15;;;;;;;6.45;3.60;;;;;;;19.79;17.53;99595.53;5004671;28;20045;-65
2023/04/13 11:12:59;;;;;;;8.57;3.63;;;;;;;19.93;17.40;99598.47;4992483;28;20034;-63
2023/04/13 11:15:28;;;;;;;8.00;3.50;;;;;;;20.03;17.63;99618.00;4994566;28;20034;-65
2023/04/13 11:17:56;;;;;;;7.72;3.47;;;;;;;19.79;17.70;99586.56;4992779;28;20073;-64
2023/04/13 11:20:33;;;;;;;8.75;3.53;;;;;;;19.85;17.56;99591.22;4992235;28;20026;-63
2023/04/13 11:23:02;;;;;;;10.68;3.35;;;;;;;19.88;17.19;99593.56;4993079;28;20045;-65